Time;durP1;ratioP1;P1;durP2;ratioP2;P2;SDS_P1;SDS_P2;PMS_P1;PMS_P2;Temp;Humidity;BMP_temperature;BMP_pressure;BME280_temperature;BME280_humidity;BME280_pressure;Samples;Min_cycle;Max_cycle;Signal;HPM_P1;HPM_P2
2021/01/25 00:01:16;;;;;;;21.55;9.00;;;;;;;1.60;71.42;99644.47;1754175;80;21628;-81
2021/01/25 00:03:44;;;;;;;17.62;8.30;;;;;;;1.59;71.80;99640.13;1754371;82;21129;-79
2021/01/25 00:06:11;;;;;;;19.12;8.55;;;;;;;1.61;71.63;99640.75;1716656;82;21211;-82
2021/01/25 00:08:39;;;;;;;22.05;8.95;;;;;;;1.63;71.53;99637.33;1753943;80;21172;-80
2021/01/25 00:11:07;;;;;;;18.57;8.28;;;;;;;1.66;71.42;99638.27;1753491;80;21168;-80
2021/01/25 00:13:36;;;;;;;19.37;8.77;;;;;;;1.68;71.37;99633.48;1754728;80;21636;-82
2021/01/25 00:16:05;;;;;;;21.50;8.40;;;;;;;1.70;71.24;99642.20;1738593;81;21254;-82
2021/01/25 00:18:33;;;;;;;19.37;7.42;;;;;;;1.73;71.35;99642.30;1738980;81;21180;-83
2021/01/25 00:21:00;;;;;;;21.50;8.63;;;;;;;1.73;71.54;99624.26;1756497;80;21240;-82
2021/01/25 00:23:28;;;;;;;26.33;8.25;;;;;;;1.73;71.57;99625.61;1766560;80;21489;-79
2021/01/25 00:25:56;;;;;;;19.40;8.13;;;;;;;1.76;71.58;99624.36;1773921;79;21275;-82
2021/01/25 00:28:24;;;;;;;15.98;7.53;;;;;;;1.76;70.94;99617.10;1755645;80;21568;-79
2021/01/25 00:30:52;;;;;;;18.73;8.33;;;;;;;1.76;71.01;99620.31;1755799;80;21133;-80
2021/01/25 00:33:20;;;;;;;19.40;8.28;;;;;;;1.76;71.22;99618.45;1754624;80;21255;-78
2021/01/25 00:35:48;;;;;;;18.48;7.83;;;;;;;1.75;71.33;99624.88;1755926;81;21549;-84
2021/01/25 00:38:16;;;;;;;17.62;7.75;;;;;;;1.75;71.28;99620.83;1741131;80;21149;-81
2021/01/25 00:40:45;;;;;;;17.82;7.42;;;;;;;1.77;71.19;99621.98;1775617;79;21140;-79
2021/01/25 00:43:13;;;;;;;18.57;8.40;;;;;;;1.75;71.09;99619.48;1754326;82;21561;-78
2021/01/25 00:45:41;;;;;;;17.92;8.05;;;;;;;1.76;71.50;99617.10;1773483;79;21144;-79
2021/01/25 00:48:09;;;;;;;20.72;8.18;;;;;;;1.76;71.65;99611.70;1755994;82;21164;-81
2021/01/25 00:50:37;;;;;;;20.43;8.15;;;;;;;1.75;71.25;99618.13;1754005;80;21160;-79
2021/01/25 00:53:06;;;;;;;24.63;8.55;;;;;;;1.75;71.34;99615.94;1754939;82;21176;-80
2021/01/25 00:55:34;;;;;;;20.37;8.47;;;;;;;1.73;71.75;99609.42;1754836;80;21567;-82
2021/01/25 00:58:02;;;;;;;16.27;8.18;;;;;;;1.72;71.36;99605.59;1756039;80;21667;-80
2021/01/25 01:00:30;;;;;;;20.77;8.33;;;;;;;1.73;71.45;99608.07;1755218;80;21564;-81
2021/01/25 01:02:57;;;;;;;29.65;12.88;;;;;;;1.74;71.47;99609.75;1756016;81;21116;-83
2021/01/25 01:05:26;;;;;;;18.25;8.63;;;;;;;1.75;71.23;99601.94;1716423;82;21124;-83
2021/01/25 01:07:53;;;;;;;19.92;8.45;;;;;;;1.75;71.55;99603.80;1755292;81;21247;-81
2021/01/25 01:10:21;;;;;;;21.23;8.55;;;;;;;1.74;71.56;99607.05;1716625;82;21674;-77
2021/01/25 01:12:49;;;;;;;20.27;8.17;;;;;;;1.74;71.66;99600.81;1755699;81;21121;-78
2021/01/25 01:15:17;;;;;;;19.05;8.15;;;;;;;1.73;71.55;99604.53;1755031;80;21231;-79
2021/01/25 01:17:45;;;;;;;19.85;8.50;;;;;;;1.72;71.60;99594.26;1756908;79;21577;-81
2021/01/25 01:20:13;;;;;;;23.25;8.25;;;;;;;1.72;71.68;99597.50;1737964;81;21125;-78
2021/01/25 01:22:43;;;;;;;19.90;9.07;;;;;;;1.71;71.61;99596.66;1690462;83;21184;-78
2021/01/25 01:25:13;;;;;;;21.37;9.20;;;;;;;1.69;71.49;99593.35;1716152;83;21216;-81
2021/01/25 01:27:40;;;;;;;21.77;8.85;;;;;;;1.67;71.70;99599.45;1755864;80;21384;-78
2021/01/25 01:30:09;;;;;;;20.20;9.28;;;;;;;1.66;71.72;99589.71;1763111;80;21140;-79
2021/01/25 01:32:37;;;;;;;19.30;7.73;;;;;;;1.66;71.90;99592.92;1712520;82;21151;-80
2021/01/25 01:35:07;;;;;;;24.77;8.73;;;;;;;1.68;72.13;99586.80;1755899;82;21584;-82
2021/01/25 01:37:34;;;;;;;21.17;9.13;;;;;;;1.67;71.66;99581.91;1764836;80;21179;-81
2021/01/25 01:40:07;;;;;;;22.37;9.15;;;;;;;1.65;71.90;99585.34;1746945;80;21128;-81
2021/01/25 01:42:36;;;;;;;23.53;8.40;;;;;;;1.66;72.25;99582.97;1755735;80;21233;-80
2021/01/25 01:45:06;;;;;;;23.25;8.78;;;;;;;1.66;71.97;99574.04;1756775;80;21129;-82
2021/01/25 01:47:35;;;;;;;25.40;9.10;;;;;;;1.64;71.84;99587.75;1755180;80;21208;-83
2021/01/25 01:50:04;;;;;;;20.37;8.80;;;;;;;1.62;72.19;99587.64;1754747;81;21538;-78
2021/01/25 01:52:33;;;;;;;21.70;9.47;;;;;;;1.62;72.31;99590.34;1716016;82;21262;-80
2021/01/25 01:55:01;;;;;;;21.82;9.05;;;;;;;1.63;72.38;99596.03;1756181;80;21633;-78
2021/01/25 01:57:31;;;;;;;23.62;9.03;;;;;;;1.63;72.49;99594.17;1755614;80;21125;-81
2021/01/25 02:00:01;;;;;;;20.67;9.63;;;;;;;1.65;72.60;99584.51;1739098;81;21117;-81
2021/01/25 02:02:31;;;;;;;24.63;9.37;;;;;;;1.65;72.59;99589.91;1737532;82;21102;-80
2021/01/25 02:04:59;;;;;;;20.88;9.58;;;;;;;1.65;72.64;99584.00;1781718;80;21100;-79
2021/01/25 02:07:27;;;;;;;19.57;8.85;;;;;;;1.67;72.79;99585.16;1763355;79;21133;-81
2021/01/25 02:09:56;;;;;;;23.40;8.70;;;;;;;1.68;72.82;99578.70;1766040;80;21160;-82
2021/01/25 02:12:24;;;;;;;;;;;;;;;1.69;72.72;99574.98;1740710;82;21145;-82
2021/01/25 02:14:52;;;;;;;25.30;9.00;;;;;;;1.70;72.82;99578.80;1754272;80;20196;-79
2021/01/25 02:17:20;;;;;;;30.13;9.83;;;;;;;1.68;72.97;99574.14;1729753;81;21152;-84
2021/01/25 02:20:10;;;;;;;18.32;8.70;;;;;;;1.69;72.93;99577.16;1756370;80;21121;-80
2021/01/25 02:22:46;;;;;;;22.40;9.07;;;;;;;1.71;72.93;99572.90;1754491;80;21183;-80
2021/01/25 02:25:17;;;;;;;22.20;9.50;;;;;;;1.69;72.92;99576.33;1755444;80;21109;-79
2021/01/25 02:27:45;;;;;;;23.73;9.33;;;;;;;1.67;73.16;99575.72;1755334;80;21691;-82
2021/01/25 02:30:15;;;;;;;21.50;8.78;;;;;;;1.66;73.22;99581.63;1754143;80;21172;-80
2021/01/25 02:32:43;;;;;;;19.37;9.00;;;;;;;1.65;73.25;99575.91;1754552;80;21145;-81
2021/01/25 02:35:15;;;;;;;24.52;9.35;;;;;;;1.64;73.38;99570.22;1754808;80;21114;-83
2021/01/25 02:37:44;;;;;;;22.67;9.17;;;;;;;1.62;73.32;99567.42;1765367;80;21551;-80
2021/01/25 02:40:14;;;;;;;21.80;9.10;;;;;;;1.58;73.49;99562.94;1754528;80;21222;-81
2021/01/25 02:42:42;;;;;;;19.47;8.13;;;;;;;1.58;73.61;99566.98;1754081;80;21243;-80
2021/01/25 02:45:10;;;;;;;21.48;8.88;;;;;;;1.57;73.66;99561.81;1736795;80;21152;-80
2021/01/25 02:47:39;;;;;;;27.07;9.40;;;;;;;1.57;73.81;99560.47;1776593;79;21579;-77
2021/01/25 02:50:08;;;;;;;19.45;9.08;;;;;;;1.58;73.76;99562.94;1741094;81;21557;-77
2021/01/25 02:52:37;;;;;;;20.43;9.13;;;;;;;1.58;73.89;99564.80;1754246;80;21248;-76
2021/01/25 02:55:06;;;;;;;21.42;9.75;;;;;;;1.56;74.06;99565.53;1755923;81;21152;-79
2021/01/25 02:57:35;;;;;;;20.33;9.03;;;;;;;1.55;74.05;99569.25;1769018;80;21274;-79
2021/01/25 03:00:06;;;;;;;;;;;;;;;1.55;74.07;99566.05;1758370;80;21168;-77
2021/01/25 03:02:34;;;;;;;23.57;9.70;;;;;;;1.54;74.36;99563.06;1717162;82;20167;-78
2021/01/25 03:05:06;;;;;;;20.80;9.78;;;;;;;1.53;74.33;99557.34;1717603;82;21565;-78
2021/01/25 03:07:34;;;;;;;23.77;10.47;;;;;;;1.51;74.43;99564.81;1716263;82;21518;-78
2021/01/25 03:10:04;;;;;;;20.80;10.18;;;;;;;1.51;74.65;99562.12;1719861;82;21131;-79
2021/01/25 03:12:33;;;;;;;23.17;10.30;;;;;;;1.50;74.88;99557.75;1761197;80;21250;-80
2021/01/25 03:15:01;;;;;;;24.15;10.32;;;;;;;1.51;74.94;99559.42;1760542;80;21125;-79
2021/01/25 03:17:29;;;;;;;21.90;10.23;;;;;;;1.49;74.96;99552.58;1756003;80;21140;-78
2021/01/25 03:19:57;;;;;;;20.55;10.23;;;;;;;1.48;75.12;99550.39;1716580;83;21211;-78
2021/01/25 03:22:25;;;;;;;24.12;10.98;;;;;;;1.45;75.40;99552.66;1755817;80;21133;-79
2021/01/25 03:24:53;;;;;;;17.67;9.83;;;;;;;1.44;75.43;99546.47;1755909;81;21552;-80
2021/01/25 03:27:21;;;;;;;23.90;11.40;;;;;;;1.44;75.58;99546.47;1756025;80;21431;-79
2021/01/25 03:29:49;;;;;;;24.95;11.25;;;;;;;1.44;75.26;99543.77;1716781;82;21136;-79
2021/01/25 03:32:17;;;;;;;27.02;12.63;;;;;;;1.43;75.07;99551.53;1755989;80;21142;-79
2021/01/25 03:34:46;;;;;;;28.20;12.23;;;;;;;1.43;75.07;99551.53;1754935;80;21152;-79
2021/01/25 03:37:14;;;;;;;29.15;11.95;;;;;;;1.43;75.42;99553.39;1737660;81;21176;-77
2021/01/25 03:39:42;;;;;;;31.00;13.32;;;;;;;1.40;75.31;99546.55;1754725;80;21168;-77
2021/01/25 03:42:09;;;;;;;29.43;12.90;;;;;;;1.39;75.33;99541.38;1726190;82;21152;-77
2021/01/25 03:44:37;;;;;;;31.37;12.73;;;;;;;1.39;75.43;99550.30;1748803;80;21171;-78
2021/01/25 03:47:05;;;;;;;33.15;13.20;;;;;;;1.39;75.46;99541.38;1757779;80;21798;-83
2021/01/25 03:49:33;;;;;;;38.25;14.00;;;;;;;1.39;75.46;99551.64;1761831;80;21136;-84
2021/01/25 03:52:01;;;;;;;31.30;12.63;;;;;;;1.39;75.62;99547.60;1758466;80;21165;-80
2021/01/25 03:54:30;;;;;;;38.73;13.40;;;;;;;1.37;75.52;99556.39;1757162;80;21245;-75
2021/01/25 03:56:58;;;;;;;41.55;14.28;;;;;;;1.35;75.69;99555.77;1761812;80;21097;-77
2021/01/25 03:59:26;;;;;;;39.65;13.62;;;;;;;1.35;75.83;99557.13;1717009;82;21175;-77
2021/01/25 04:01:54;;;;;;;32.20;12.50;;;;;;;1.36;76.00;99552.56;1743694;80;21588;-78
2021/01/25 04:04:23;;;;;;;35.55;13.35;;;;;;;1.35;76.13;99563.86;1754473;82;21596;-75
2021/01/25 04:06:52;;;;;;;35.67;14.10;;;;;;;1.33;76.19;99569.98;1753682;80;21096;-78
2021/01/25 04:09:20;;;;;;;32.98;13.00;;;;;;;1.32;76.42;99565.61;1754710;80;21146;-76
2021/01/25 04:11:48;;;;;;;33.97;14.40;;;;;;;1.33;76.48;99566.45;1716205;82;21195;-77
2021/01/25 04:14:16;;;;;;;33.67;13.38;;;;;;;1.31;76.65;99561.79;1755231;80;21660;-78
2021/01/25 04:16:44;;;;;;;37.13;13.83;;;;;;;1.32;76.72;99565.61;1754046;80;21117;-78
2021/01/25 04:19:13;;;;;;;33.35;13.83;;;;;;;1.31;76.69;99566.67;1754327;81;21552;-75
2021/01/25 04:21:41;;;;;;;;;;;;;;;1.30;76.88;99558.26;1718104;82;21488;-78
2021/01/25 04:24:08;;;;;;;29.50;13.20;;;;;;;1.31;77.05;99555.05;1680559;84;20211;-75
2021/01/25 04:26:41;;;;;;;26.70;11.60;;;;;;;1.31;77.12;99551.84;1716658;82;21267;-76
2021/01/25 04:29:06;;;;;;;38.80;13.57;;;;;;;1.33;77.12;99547.58;1756324;79;21549;-77
2021/01/25 04:31:34;;;;;;;31.57;13.90;;;;;;;1.30;77.13;99555.56;1739519;80;21085;-78
2021/01/25 04:34:02;;;;;;;36.63;14.80;;;;;;;1.30;77.25;99559.61;1754250;80;21212;-78
2021/01/25 04:36:29;;;;;;;35.68;14.65;;;;;;;1.29;77.38;99560.66;1754167;80;21604;-76
2021/01/25 04:39:00;;;;;;;31.20;14.00;;;;;;;1.26;77.44;99565.11;1776437;80;21171;-76
2021/01/25 04:41:29;;;;;;;29.80;14.73;;;;;;;1.23;77.44;99557.42;1776810;79;21240;-79
2021/01/25 04:43:56;;;;;;;35.43;14.33;;;;;;;1.20;77.62;99558.67;1756428;80;21524;-80
2021/01/25 04:46:24;;;;;;;34.73;14.00;;;;;;;1.18;77.95;99558.05;1754505;80;21160;-80
2021/01/25 04:48:52;;;;;;;37.80;14.83;;;;;;;1.18;78.08;99560.75;1756400;80;21763;-78
2021/01/25 04:51:20;;;;;;;33.20;14.80;;;;;;;1.15;78.09;99561.15;1717356;83;21153;-79
2021/01/25 04:53:48;;;;;;;38.20;15.25;;;;;;;1.13;78.37;99552.45;1717343;82;21588;-77
2021/01/25 04:56:15;;;;;;;42.62;16.05;;;;;;;1.13;78.78;99561.88;1755949;81;21219;-77
2021/01/25 04:58:43;;;;;;;37.05;16.45;;;;;;;1.11;79.05;99550.98;1717377;82;21247;-78
2021/01/25 05:01:12;;;;;;;38.55;18.50;;;;;;;1.09;79.33;99554.38;1756043;80;21157;-79
2021/01/25 05:03:40;;;;;;;32.00;15.20;;;;;;;1.08;79.51;99563.52;1717512;82;21157;-79
2021/01/25 05:06:08;;;;;;;38.10;15.93;;;;;;;1.06;79.70;99561.55;1756247;81;21576;-78
2021/01/25 05:08:36;;;;;;;34.92;15.95;;;;;;;1.04;79.99;99562.25;1755377;80;22002;-78
2021/01/25 05:11:17;;;;;;;28.70;15.23;;;;;;;1.03;80.11;99568.69;1757098;81;21097;-84
2021/01/25 05:13:45;;;;;;;36.57;16.93;;;;;;;1.03;80.27;99564.14;1755499;80;21730;-80
2021/01/25 05:16:22;;;;;;;61.90;35.85;;;;;;;1.03;80.56;99568.18;1756268;81;21109;-78
2021/01/25 05:18:57;;;;;;;36.27;17.77;;;;;;;1.02;80.71;99565.67;1755878;80;21144;-79
2021/01/25 05:21:48;;;;;;;37.67;16.07;;;;;;;1.00;81.00;99573.13;1690835;83;21152;-79
2021/01/25 05:24:17;;;;;;;30.60;16.27;;;;;;;0.98;81.16;99576.05;1754676;80;21235;-82
2021/01/25 05:26:56;;;;;;;32.05;15.95;;;;;;;0.94;81.31;99582.02;1756142;80;21695;-79
2021/01/25 05:29:25;;;;;;;38.20;18.93;;;;;;;0.93;81.69;99580.38;1740666;82;21136;-84
2021/01/25 05:31:53;;;;;;;87.50;42.73;;;;;;;0.92;81.86;99574.66;1755446;80;21117;-80
2021/01/25 05:34:22;;;;;;;31.57;16.20;;;;;;;0.92;81.80;99578.70;1756012;81;21176;-80
2021/01/25 05:36:50;;;;;;;37.78;17.17;;;;;;;0.92;81.91;99571.45;1712726;82;21164;-81
2021/01/25 05:39:18;;;;;;;34.48;16.60;;;;;;;0.94;82.01;99591.45;1755371;81;21108;-83
2021/01/25 05:41:54;;;;;;;35.47;15.93;;;;;;;0.95;81.95;99593.12;1716711;82;21112;-83
2021/01/25 05:44:22;;;;;;;38.43;18.07;;;;;;;0.97;81.98;99581.62;1734109;81;21183;-80
2021/01/25 05:46:50;;;;;;;40.43;17.82;;;;;;;0.98;82.10;99584.64;1716873;82;21164;-82
2021/01/25 05:49:28;;;;;;;36.05;17.65;;;;;;;0.96;81.99;99598.30;1754770;80;21121;-80
2021/01/25 05:51:56;;;;;;;40.78;18.45;;;;;;;0.97;82.16;99599.13;1716376;82;21148;-83
2021/01/25 05:54:25;;;;;;;38.67;18.40;;;;;;;0.94;82.31;99586.06;1755730;80;21733;-80
2021/01/25 05:59:44;;;;;;;37.53;17.33;;;;;;;0.95;82.57;99585.04;1824773;77;22112;-83
2021/01/25 06:02:12;;;;;;;39.63;17.85;;;;;;;0.91;82.60;99591.34;1766948;80;21113;-82
2021/01/25 06:04:40;;;;;;;42.25;17.50;;;;;;;0.92;82.53;99584.09;1755648;80;21125;-80
2021/01/25 06:07:08;;;;;;;39.40;18.15;;;;;;;0.92;82.48;99584.92;1692294;82;21160;-80
2021/01/25 06:09:52;;;;;;;36.30;16.53;;;;;;;0.91;82.61;99584.59;1730224;81;21211;-84
2021/01/25 06:12:30;;;;;;;41.50;18.90;;;;;;;0.90;82.53;99569.48;1758103;80;21549;-81
2021/01/25 06:15:10;;;;;;;37.33;18.55;;;;;;;0.91;82.53;99571.67;1752269;81;21137;-80
2021/01/25 06:17:37;;;;;;;36.13;17.43;;;;;;;0.92;82.78;99565.23;1723821;80;21192;-80
2021/01/25 06:20:07;;;;;;;41.48;18.75;;;;;;;0.93;82.76;99571.78;1757248;81;21113;-81
2021/01/25 06:22:36;;;;;;;35.57;18.63;;;;;;;0.96;82.66;99579.98;1756231;80;21608;-81
2021/01/25 06:25:07;;;;;;;38.57;17.93;;;;;;;0.99;82.59;99587.63;1741196;82;21100;-83
2021/01/25 06:27:37;;;;;;;38.57;18.70;;;;;;;1.00;82.65;99589.30;1719255;83;21159;-80
2021/01/25 06:30:06;;;;;;;45.33;20.03;;;;;;;1.02;82.60;99591.27;1754358;80;21211;-83
2021/01/25 06:32:34;;;;;;;41.33;20.30;;;;;;;1.02;82.72;99582.67;1734811;80;21129;-80
2021/01/25 06:35:06;;;;;;;38.33;19.60;;;;;;;1.01;82.76;99585.59;1753165;80;21125;-80
2021/01/25 06:37:34;;;;;;;38.83;19.13;;;;;;;0.99;82.88;99583.58;1766479;79;21203;-83
2021/01/25 06:40:10;;;;;;;37.50;17.95;;;;;;;1.00;82.67;99578.52;1703620;83;21245;-78
2021/01/25 06:42:39;;;;;;;39.57;18.60;;;;;;;1.00;82.80;99586.09;1681527;84;21626;-80
2021/01/25 06:45:10;;;;;;;32.27;16.63;;;;;;;1.01;82.76;99574.27;1689359;84;21144;-80
2021/01/25 06:47:38;;;;;;;37.47;19.43;;;;;;;1.02;82.72;99572.41;1713254;83;21145;-81
2021/01/25 06:50:08;;;;;;;40.07;18.23;;;;;;;1.02;82.79;99567.02;1697400;83;21284;-80
2021/01/25 06:52:38;;;;;;;43.80;20.90;;;;;;;1.01;82.87;99568.07;1715622;83;21277;-77
2021/01/25 06:55:09;;;;;;;42.30;20.87;;;;;;;1.02;83.03;99560.28;1704313;82;21173;-85
2021/01/25 06:57:38;;;;;;;44.80;20.80;;;;;;;1.02;83.03;99567.02;1665610;84;21294;-84
2021/01/25 07:00:19;;;;;;;45.67;22.48;;;;;;;1.01;83.14;99564.03;1647109;84;21113;-82
2021/01/25 07:02:55;;;;;;;43.10;21.10;;;;;;;0.99;83.18;99570.95;1702290;84;21212;-81
2021/01/25 07:05:33;;;;;;;44.33;19.50;;;;;;;0.97;83.27;99577.58;1706888;82;21117;-81
2021/01/25 07:08:28;;;;;;;46.93;22.87;;;;;;;0.97;83.32;99576.23;1708674;84;21129;-78
2021/01/25 07:11:04;;;;;;;47.53;21.43;;;;;;;0.96;83.32;99573.23;1673549;83;21175;-81
2021/01/25 07:13:34;;;;;;;49.83;21.70;;;;;;;0.99;83.35;99576.85;1663951;85;21621;-78
2021/01/25 07:16:03;;;;;;;51.53;23.60;;;;;;;0.98;83.46;99573.86;1689745;82;21164;-79
2021/01/25 07:18:31;;;;;;;43.37;21.97;;;;;;;0.98;83.51;99566.61;1687747;84;21213;-80
2021/01/25 07:21:00;;;;;;;42.25;21.93;;;;;;;0.99;83.55;99570.11;1685955;82;21147;-82
2021/01/25 07:23:28;;;;;;;49.17;23.13;;;;;;;1.01;83.57;99576.16;1694076;84;21684;-81
2021/01/25 07:25:59;;;;;;;47.75;22.65;;;;;;;1.01;83.63;99576.16;1727155;83;21167;-82
2021/01/25 07:28:30;;;;;;;45.80;21.53;;;;;;;1.03;83.74;99570.88;1694098;84;21137;-81
2021/01/25 07:30:58;;;;;;;46.77;21.37;;;;;;;1.05;83.61;99580.92;1720634;83;21588;-81
2021/01/25 07:33:26;;;;;;;54.35;28.83;;;;;;;1.09;83.64;99584.02;1694419;82;21143;-79
2021/01/25 07:35:55;;;;;;;;;;;;;;;1.11;83.68;99587.38;1703906;83;21225;-80
2021/01/25 07:38:23;;;;;;;46.42;23.20;;;;;;;1.12;83.61;99584.97;1708616;81;20472;-79
2021/01/25 07:40:51;;;;;;;46.90;22.65;;;;;;;1.11;83.69;99590.87;1692914;83;21301;-78
2021/01/25 07:43:19;;;;;;;;;;;;;;;1.11;83.77;99594.11;1702661;82;21140;-77
2021/01/25 07:45:51;;;;;;;44.40;21.33;;;;;;;1.11;83.83;99590.06;1676246;84;20589;-78
2021/01/25 07:48:17;;;;;;;49.47;22.20;;;;;;;1.14;83.86;99580.20;1688033;82;21165;-75
2021/01/25 07:50:55;;;;;;;42.23;20.97;;;;;;;1.15;84.01;99575.13;1695008;84;21267;-77
2021/01/25 07:53:22;;;;;;;46.95;22.22;;;;;;;1.18;83.83;99585.00;1705670;82;21683;-80
2021/01/25 07:55:50;;;;;;;43.78;21.05;;;;;;;1.19;83.84;99592.55;1711937;82;21136;-80
2021/01/25 07:58:19;;;;;;;50.73;25.88;;;;;;;1.22;83.90;99598.88;1691029;82;21330;-82
2021/01/25 08:00:46;;;;;;;50.55;23.90;;;;;;;1.25;83.89;99596.62;1708405;83;21153;-78
2021/01/25 08:03:30;;;;;;;48.85;23.07;;;;;;;1.27;83.83;99592.36;1705848;82;21157;-79
2021/01/25 08:06:02;;;;;;;48.97;22.17;;;;;;;1.26;83.74;99597.45;1713477;82;21114;-82
2021/01/25 08:08:30;;;;;;;47.27;23.47;;;;;;;1.24;83.83;99603.03;1701497;82;21258;-79
2021/01/25 08:10:58;;;;;;;47.05;22.45;;;;;;;1.26;83.95;99588.02;1699634;82;21175;-77
2021/01/25 08:13:31;;;;;;;46.90;21.57;;;;;;;1.26;84.01;99594.76;1716229;82;21155;-78
2021/01/25 08:16:19;;;;;;;41.53;21.53;;;;;;;1.24;84.22;99595.45;1688251;82;21863;-81
2021/01/25 08:19:11;;;;;;;45.15;21.40;;;;;;;1.22;84.48;99598.38;1710480;83;21176;-82
2021/01/25 08:21:56;;;;;;;44.03;21.90;;;;;;;1.25;84.75;99603.88;1702217;83;21141;-81
2021/01/25 08:24:23;;;;;;;47.67;23.30;;;;;;;1.27;84.77;99599.09;1699820;82;21137;-81
2021/01/25 08:26:54;;;;;;;46.05;23.70;;;;;;;1.28;84.80;99598.08;1694262;82;21116;-82
2021/01/25 08:29:25;;;;;;;52.00;24.67;;;;;;;1.29;84.96;99599.75;1702296;83;21653;-80
2021/01/25 08:31:53;;;;;;;48.13;24.37;;;;;;;1.29;84.99;99598.40;1694629;82;21147;-80
2021/01/25 08:34:30;;;;;;;43.25;23.70;;;;;;;1.28;84.93;99590.83;1699973;82;21697;-80
2021/01/25 08:37:08;;;;;;;43.73;22.97;;;;;;;1.28;84.89;99592.69;1698534;82;21223;-80
2021/01/25 08:39:43;;;;;;;46.63;22.33;;;;;;;1.31;84.98;99588.75;1708274;82;21206;-80
2021/01/25 08:42:21;;;;;;;42.40;21.27;;;;;;;1.34;85.04;99591.88;1694684;82;21113;-80
2021/01/25 08:44:57;;;;;;;48.60;22.90;;;;;;;1.38;85.20;99587.72;1695452;84;21135;-82
2021/01/25 08:47:29;;;;;;;45.00;22.27;;;;;;;1.42;85.03;99586.80;1689475;82;21151;-81
2021/01/25 08:49:57;;;;;;;51.17;23.40;;;;;;;1.43;85.12;99579.84;1709695;83;21216;-81
2021/01/25 08:52:29;;;;;;;49.30;23.73;;;;;;;1.44;85.15;99572.08;1696225;82;21173;-79
2021/01/25 08:55:12;;;;;;;49.67;23.10;;;;;;;1.48;85.15;99574.66;1703137;83;21197;-81
2021/01/25 08:57:42;;;;;;;48.03;22.57;;;;;;;1.50;85.09;99575.79;1683331;82;21597;-83
2021/01/25 09:00:33;;;;;;;51.37;22.87;;;;;;;1.48;85.25;99576.52;1690182;82;21669;-82
2021/01/25 09:03:05;;;;;;;46.23;22.43;;;;;;;1.49;85.25;99567.41;1702343;82;21728;-82
2021/01/25 09:05:35;;;;;;;43.57;22.83;;;;;;;1.50;85.26;99559.61;1695578;84;21172;-80
2021/01/25 09:08:03;;;;;;;45.95;23.85;;;;;;;1.52;85.31;99550.27;1685832;82;21542;-79
2021/01/25 09:10:33;;;;;;;44.73;24.23;;;;;;;1.55;85.24;99551.73;1704585;82;21109;-80
2021/01/25 09:13:01;;;;;;;47.15;24.57;;;;;;;1.56;85.11;99548.84;1694079;82;21108;-80
2021/01/25 09:15:29;;;;;;;46.18;24.15;;;;;;;1.55;85.15;99545.82;1722208;82;21133;-81
2021/01/25 09:17:58;;;;;;;52.00;24.60;;;;;;;1.56;85.25;99543.96;1686383;82;21185;-80
2021/01/25 09:20:26;;;;;;;49.30;24.90;;;;;;;1.58;85.29;99545.41;1715022;82;21172;-81
2021/01/25 09:22:54;;;;;;;50.75;23.92;;;;;;;1.59;85.37;99536.81;1703910;81;21705;-81
2021/01/25 09:25:22;;;;;;;53.78;25.68;;;;;;;1.59;85.27;99540.34;1678013;83;21168;-82
2021/01/25 09:27:50;;;;;;;53.20;24.67;;;;;;;1.63;85.25;99538.88;1707629;82;21306;-82
2021/01/25 09:30:19;;;;;;;57.13;25.72;;;;;;;1.67;85.22;99533.36;1698230;83;21196;-82
2021/01/25 09:32:46;;;;;;;;;;;;;;;1.71;85.32;99530.58;1692511;84;21382;-77
2021/01/25 09:35:16;;;;;;;57.15;26.87;;;;;;;1.75;85.22;99532.31;1686297;82;20464;-79
2021/01/25 09:37:44;;;;;;;50.90;26.60;;;;;;;1.74;85.03;99537.42;1692226;82;21258;-79
2021/01/25 09:40:13;;;;;;;61.77;27.73;;;;;;;1.71;85.02;99534.63;1667534;83;21158;-82
2021/01/25 09:42:42;;;;;;;58.03;27.03;;;;;;;1.71;84.93;99541.36;1694973;83;21446;-81
2021/01/25 09:45:12;;;;;;;58.08;26.40;;;;;;;1.71;85.05;99533.78;1694983;82;21645;-84
2021/01/25 09:47:41;;;;;;;55.27;26.03;;;;;;;1.71;85.12;99535.97;1689718;84;21179;-82
2021/01/25 09:50:10;;;;;;;;;;;;;;;1.71;84.99;99522.99;1706917;82;21141;-82
2021/01/25 09:52:38;;;;;;;58.40;27.20;;;;;;;1.69;85.17;99528.61;1692553;84;20479;-82
2021/01/25 09:55:07;;;;;;;59.08;27.52;;;;;;;1.68;85.11;99536.37;1708049;82;21643;-82
2021/01/25 09:57:36;;;;;;;59.23;29.17;;;;;;;1.70;85.15;99536.16;1701563;84;21282;-82
2021/01/25 10:00:07;;;;;;;56.55;26.30;;;;;;;1.75;85.25;99523.70;1698872;82;21235;-86
2021/01/25 10:02:35;;;;;;;62.43;26.90;;;;;;;1.82;85.26;99515.63;1680771;83;21143;-84
2021/01/25 10:05:06;;;;;;;55.12;25.70;;;;;;;1.88;85.27;99527.73;1691235;82;21346;-80
2021/01/25 10:07:35;;;;;;;54.43;26.73;;;;;;;1.92;85.26;99515.47;1693036;82;21239;-80
2021/01/25 10:10:08;;;;;;;52.70;26.50;;;;;;;1.98;84.92;99514.31;1688258;82;21172;-79
2021/01/25 10:12:37;;;;;;;56.97;26.73;;;;;;;2.00;84.80;99502.27;1694314;83;21280;-79
2021/01/25 10:15:08;;;;;;;57.33;26.27;;;;;;;2.02;84.93;99498.03;1724283;82;21251;-78
2021/01/25 10:17:38;;;;;;;55.03;26.20;;;;;;;2.03;84.88;99507.77;1673958;83;21202;-79
2021/01/25 10:20:07;;;;;;;53.98;25.50;;;;;;;2.03;84.96;99503.20;1686722;85;21150;-77
2021/01/25 10:22:34;;;;;;;;;;;;;;;2.06;84.89;99509.53;1698403;83;21170;-80
2021/01/25 10:25:03;;;;;;;57.50;25.65;;;;;;;2.10;84.88;99509.95;1644517;84;20170;-79
2021/01/25 10:27:32;;;;;;;55.57;24.43;;;;;;;2.12;84.76;99501.11;1698995;83;21316;-81
2021/01/25 10:30:02;;;;;;;58.30;26.17;;;;;;;2.15;84.73;99492.59;1690662;85;21105;-82
2021/01/25 10:32:30;;;;;;;62.47;30.60;;;;;;;2.19;84.68;99478.97;1704401;83;21161;-81
2021/01/25 10:34:59;;;;;;;57.33;26.77;;;;;;;2.19;84.52;99476.27;1715350;84;21227;-83
2021/01/25 10:37:27;;;;;;;55.80;26.57;;;;;;;2.22;84.60;99467.75;1706308;83;21184;-82
2021/01/25 10:39:55;;;;;;;54.25;27.05;;;;;;;2.27;84.68;99471.47;1702937;83;21180;-77
2021/01/25 10:42:23;;;;;;;50.33;26.73;;;;;;;2.31;84.64;99479.95;1713038;83;21129;-81
2021/01/25 10:44:51;;;;;;;53.55;25.60;;;;;;;2.35;84.56;99470.40;1684458;84;21146;-78
2021/01/25 10:47:19;;;;;;;47.78;23.45;;;;;;;2.37;84.41;99458.86;1712149;83;21141;-83
2021/01/25 10:49:47;;;;;;;49.45;23.98;;;;;;;2.42;84.27;99457.17;1690799;83;21564;-78
2021/01/25 10:52:15;;;;;;;55.75;26.93;;;;;;;2.47;84.01;99456.52;1690027;83;21263;-81
2021/01/25 10:54:43;;;;;;;53.42;26.17;;;;;;;2.48;83.96;99454.10;1687761;83;21132;-80
2021/01/25 10:57:11;;;;;;;55.98;26.27;;;;;;;2.49;83.56;99455.26;1704605;83;21135;-77
2021/01/25 10:59:40;;;;;;;55.85;28.00;;;;;;;2.51;83.65;99457.22;1704071;83;21152;-80
2021/01/25 11:02:10;;;;;;;54.42;26.00;;;;;;;2.53;83.67;99451.58;1703409;83;21180;-78
2021/01/25 11:04:38;;;;;;;47.15;25.10;;;;;;;2.55;83.53;99447.62;1693717;83;21180;-79
2021/01/25 11:07:07;;;;;;;51.37;25.95;;;;;;;2.58;83.53;99452.59;1686912;83;21160;-78
2021/01/25 11:09:34;;;;;;;59.50;24.70;;;;;;;2.62;83.00;99451.65;1692559;83;21197;-78
2021/01/25 11:12:03;;;;;;;56.83;25.37;;;;;;;2.63;83.15;99445.22;1712440;83;21164;-78
2021/01/25 11:14:31;;;;;;;55.55;25.27;;;;;;;2.69;83.08;99439.44;1690936;83;21126;-78
2021/01/25 11:16:58;;;;;;;57.38;26.62;;;;;;;2.73;82.85;99432.06;1705307;83;21220;-79
2021/01/25 11:19:27;;;;;;;53.73;25.50;;;;;;;2.77;82.65;99440.02;1704387;83;21153;-78
2021/01/25 11:21:54;;;;;;;50.15;24.85;;;;;;;2.78;82.35;99436.80;1709443;83;21205;-79
2021/01/25 11:24:24;;;;;;;55.40;25.55;;;;;;;2.79;82.47;99432.52;1726058;83;21222;-78
2021/01/25 11:26:53;;;;;;;49.80;24.85;;;;;;;2.84;82.63;99423.75;1675943;84;21142;-79
2021/01/25 11:29:23;;;;;;;53.08;26.25;;;;;;;2.87;82.32;99428.72;1694362;83;21180;-78
2021/01/25 11:31:52;;;;;;;56.15;26.00;;;;;;;2.88;81.93;99420.41;1717481;83;21239;-78
2021/01/25 11:34:19;;;;;;;57.43;27.58;;;;;;;2.90;82.03;99422.37;1711270;83;21141;-78
2021/01/25 11:36:47;;;;;;;55.63;26.37;;;;;;;2.94;82.11;99426.27;1695159;83;21171;-79
2021/01/25 11:39:15;;;;;;;56.73;26.50;;;;;;;2.97;81.83;99419.08;1679587;84;21570;-81
2021/01/25 11:41:43;;;;;;;62.62;25.82;;;;;;;3.01;81.83;99427.59;1693528;83;21140;-83
2021/01/25 11:44:14;;;;;;;53.40;25.70;;;;;;;3.00;81.58;99431.33;1689197;83;21345;-84